createdAt,value
2022-08-05T03:49:58.630Z,280
2022-08-05T03:50:47.779Z,296
2022-08-05T03:56:17.098Z,428
2022-08-05T03:56:49.995Z,444
2022-08-05T03:57:49.816Z,476
2022-08-05T03:58:37.678Z,496
2022-08-05T04:00:03.941Z,532
2022-08-05T04:00:38.595Z,548
2022-08-05T04:01:39.639Z,572
2022-08-05T04:03:01.321Z,612
2022-08-05T04:04:10.465Z,656
2022-08-05T04:04:40.179Z,676
2022-08-05T04:05:43.682Z,716
2022-08-05T04:06:37.708Z,752
2022-08-05T04:08:03.015Z,800
2022-08-05T04:08:44.024Z,820
2022-08-05T04:09:57.887Z,864
2022-08-05T04:10:45.192Z,880
2022-08-05T04:12:01.718Z,900
2022-08-05T04:13:58.459Z,936
2022-08-05T04:14:38.399Z,952
2022-08-05T04:16:05.078Z,992
2022-08-05T04:16:40.723Z,1008
2022-08-05T04:18:06.578Z,1052
2022-08-05T04:18:42.162Z,1072
2022-08-05T04:19:38.969Z,1116
2022-08-05T04:20:41.266Z,1160
2022-08-05T04:22:28.879Z,1232
2022-08-05T04:22:42.457Z,1236
2022-08-05T04:24:24.736Z,1236
2022-08-05T04:24:52.339Z,1232
2022-08-05T04:26:09.498Z,1212
2022-08-05T04:26:39.650Z,1196
2022-08-05T04:28:15.201Z,1172
2022-08-05T04:28:53.483Z,1172
2022-08-05T04:29:41.793Z,1176
2022-08-05T04:30:42.869Z,1192
2022-08-05T04:31:46.275Z,1216
2022-08-05T04:32:41.506Z,1236
2022-08-05T04:34:44.990Z,1268
2022-08-05T04:35:04.642Z,1268
2022-08-05T04:36:54.036Z,1264
2022-08-05T04:37:05.854Z,1264
2022-08-05T04:38:11.489Z,1248
2022-08-05T04:39:05.221Z,1248
2022-08-05T04:40:04.552Z,1248
2022-08-05T04:41:10.105Z,1236
2022-08-05T04:42:04.159Z,1248
2022-08-05T04:43:04.748Z,1268
2022-08-05T04:44:11.659Z,1308
2022-08-05T04:45:07.654Z,1340
2022-08-05T04:46:07.496Z,1372
2022-08-05T04:47:20.155Z,1416
2022-08-05T04:48:04.599Z,1448
2022-08-05T04:49:06.101Z,1504
2022-08-05T04:50:37.475Z,1616
2022-08-05T04:51:20.520Z,1680
2022-08-05T04:52:21.104Z,1764
2022-08-05T04:53:20.774Z,1832
2022-08-05T04:54:20.889Z,1840
2022-08-05T04:56:37.530Z,1900
2022-08-05T04:56:48.101Z,1912
2022-08-05T04:57:58.532Z,2004
2022-08-05T04:58:48.289Z,2060
2022-08-05T04:59:52.477Z,2164
2022-08-05T05:00:53.291Z,2288
2022-08-05T05:02:47.972Z,2540
2022-08-05T05:03:06.379Z,2560
2022-08-05T05:04:02.052Z,2600
2022-08-05T05:05:31.597Z,2608
2022-08-05T05:07:02.177Z,2648
2022-08-05T05:08:05.204Z,2768
2022-08-05T05:08:55.207Z,2964
2022-08-05T05:09:49.210Z,3316
2022-08-05T05:11:01.283Z,3980
2022-08-05T05:12:06.256Z,4448
2022-08-05T05:12:52.750Z,4556
2022-08-05T05:13:50.727Z,4348
2022-08-05T05:14:57.188Z,3976
2022-08-05T05:16:11.853Z,3612
2022-08-05T05:16:52.888Z,3592
2022-08-05T05:18:03.396Z,3760
2022-08-05T05:19:36.670Z,4152
2022-08-05T05:19:56.396Z,4292
2022-08-05T05:21:00.611Z,4648
2022-08-05T05:22:23.221Z,5136
2022-08-05T05:22:55.285Z,5444
2022-08-05T05:24:19.733Z,5936
2022-08-05T05:25:21.397Z,6048
2022-08-05T05:25:56.336Z,5892
2022-08-05T05:27:01.728Z,5404
2022-08-05T05:28:01.097Z,5092
2022-08-05T05:28:55.911Z,4944
2022-08-05T05:30:35.886Z,4488
2022-08-05T05:30:57.477Z,4352
2022-08-05T05:31:55.607Z,3968
2022-08-05T05:32:55.820Z,3756
2022-08-05T05:34:08.909Z,3600
2022-08-05T05:34:57.299Z,3384
2022-08-05T05:35:56.339Z,3212
2022-08-05T05:36:58.344Z,3168
2022-08-05T05:38:09.042Z,3124
2022-08-05T05:38:54.440Z,3160
2022-08-05T05:39:55.357Z,3168
2022-08-05T05:40:59.524Z,3264
2022-08-05T05:42:01.466Z,3236
2022-08-05T05:42:56.400Z,3228
2022-08-05T05:44:45.892Z,3196
2022-08-05T05:45:03.009Z,3176
2022-08-05T05:45:55.258Z,3192
2022-08-05T05:47:04.541Z,3292
2022-08-05T05:48:18.540Z,3608
2022-08-05T05:48:57.852Z,3640
2022-08-05T05:50:06.709Z,3436
2022-08-05T05:50:55.534Z,3352
2022-08-05T05:51:58.074Z,3748
2022-08-05T05:52:57.465Z,3856
2022-08-05T05:54:05.468Z,3996
2022-08-05T05:54:57.936Z,4008
2022-08-05T05:56:07.870Z,4016
2022-08-05T05:56:59.695Z,3916
2022-08-05T05:58:06.892Z,3964
2022-08-05T05:58:57.893Z,4232
2022-08-05T05:59:59.418Z,4232
2022-08-05T06:00:56.568Z,4400
2022-08-05T06:02:04.461Z,4468
2022-08-05T06:02:55.255Z,4524
2022-08-05T06:04:11.596Z,4656
2022-08-05T06:05:01.341Z,4724
2022-08-05T06:06:03.617Z,4752
2022-08-05T06:06:56.719Z,4788
2022-08-05T06:08:11.700Z,4820
2022-08-05T06:08:58.080Z,4836
2022-08-05T06:10:14.968Z,4904
2022-08-05T06:10:59.989Z,4968
2022-08-05T06:12:12.242Z,5044
2022-08-05T06:12:55.567Z,5048
2022-08-05T06:14:02.804Z,5032
2022-08-05T06:14:59.328Z,5012
2022-08-05T06:16:42.222Z,5028
2022-08-05T06:16:55.556Z,5100
2022-08-05T06:18:00.268Z,5332
2022-08-05T06:19:08.160Z,5428
2022-08-05T06:20:06.195Z,5484
2022-08-05T06:21:00.824Z,5532
2022-08-05T06:21:59.168Z,5568
2022-08-05T06:22:55.082Z,5588
2022-08-05T06:23:56.833Z,5592
2022-08-05T06:24:55.836Z,5636
2022-08-05T06:26:36.215Z,5720
2022-08-05T06:27:00.102Z,5736
2022-08-05T06:28:33.128Z,5756
2022-08-05T06:28:55.211Z,5764
2022-08-05T06:30:27.533Z,5808
2022-08-05T06:30:57.660Z,5832
2022-08-05T06:31:59.872Z,5920
2022-08-05T06:32:58.526Z,6016
2022-08-05T06:34:19.843Z,6120
2022-08-05T06:35:05.751Z,6240
2022-08-05T06:36:18.312Z,6600
2022-08-05T06:37:05.859Z,6884
2022-08-05T06:38:14.779Z,7588
2022-08-05T06:39:03.000Z,8192
2022-08-05T06:40:04.837Z,9140
2022-08-05T06:41:08.053Z,10596
2022-08-05T06:42:06.204Z,12244
2022-08-05T06:43:02.533Z,13724
2022-08-05T06:44:08.027Z,14280
2022-08-05T06:45:10.962Z,13464
2022-08-05T06:46:14.130Z,11892
2022-08-05T06:49:01.753Z,8892
2022-08-05T06:49:21.328Z,8376
2022-08-05T06:50:24.116Z,7352
2022-08-05T06:51:34.205Z,7100
2022-08-05T06:53:03.661Z,7320
2022-08-05T06:53:55.617Z,7880
2022-08-05T06:54:38.335Z,8280
2022-08-05T06:55:48.407Z,9648
2022-08-05T06:56:39.072Z,10988
2022-08-05T06:58:38.837Z,12852
2022-08-05T06:58:54.546Z,13008
2022-08-05T07:00:03.182Z,15092
2022-08-05T07:00:54.919Z,15084
2022-08-05T07:02:01.222Z,13744
2022-08-05T07:03:00.442Z,12940
2022-08-05T07:03:54.608Z,11152
2022-08-05T07:04:55.214Z,14224
2022-08-05T07:05:57.028Z,15680
2022-08-05T07:07:00.562Z,16416
2022-08-05T07:07:55.021Z,18496
2022-08-05T07:09:03.945Z,18880
2022-08-05T07:10:06.081Z,18496
2022-08-05T07:10:59.428Z,13712
2022-08-05T07:12:02.969Z,12908
2022-08-05T07:12:55.927Z,12360
2022-08-05T07:14:06.731Z,14432
2022-08-05T07:14:58.714Z,14036
2022-08-05T07:18:07.160Z,14608
2022-08-05T07:18:38.715Z,10996
2022-08-05T07:20:41.255Z,7748
2022-08-05T07:20:55.816Z,7340
2022-08-05T07:22:10.467Z,5712
2022-08-05T07:22:55.758Z,5484
2022-08-05T07:24:03.622Z,5716
2022-08-05T07:25:09.702Z,6188
2022-08-05T07:26:04.487Z,6716
2022-08-05T07:27:05.053Z,7296
2022-08-05T07:28:19.573Z,8068
2022-08-05T07:29:06.895Z,8588
2022-08-05T07:30:41.301Z,9416
2022-08-05T07:31:04.870Z,9536
2022-08-05T07:32:08.392Z,10036
2022-08-05T07:33:15.782Z,10284
2022-08-05T07:34:10.558Z,10040
2022-08-05T07:36:23.729Z,8504
2022-08-05T07:36:35.434Z,8412
2022-08-05T07:37:49.687Z,7572
2022-08-05T07:38:54.648Z,8376
2022-08-05T07:40:37.734Z,8580
2022-08-05T07:42:18.837Z,10120
2022-08-05T07:42:50.575Z,10052
2022-08-05T07:43:47.619Z,9764
2022-08-05T07:44:48.426Z,9468
2022-08-05T07:46:06.122Z,8908
2022-08-05T07:46:50.909Z,7852
2022-08-05T07:47:50.434Z,8628
2022-08-05T07:49:12.735Z,8116
2022-08-05T07:50:09.033Z,8040
2022-08-05T07:50:46.924Z,7560
2022-08-05T07:51:58.750Z,7384
2022-08-05T07:52:46.450Z,7300
2022-08-05T07:54:01.877Z,7324
2022-08-05T07:54:55.136Z,6972
2022-08-05T07:57:56.285Z,7664
2022-08-05T07:59:01.510Z,7980
2022-08-05T07:59:31.238Z,7752
2022-08-05T08:00:19.351Z,7768
2022-08-05T08:01:24.668Z,7424
2022-08-05T08:02:30.592Z,7528
2022-08-05T08:03:46.123Z,7784
2022-08-05T08:04:42.245Z,8568
2022-08-05T08:05:23.947Z,8776
2022-08-05T08:06:23.656Z,8964
2022-08-05T08:07:39.369Z,8768
2022-08-05T08:08:28.524Z,8840
2022-08-05T08:09:31.461Z,9488
2022-08-05T08:10:31.559Z,10076
2022-08-05T08:11:59.079Z,9152
2022-08-05T08:12:54.174Z,9556
2022-08-05T08:13:49.458Z,9992
2022-08-05T08:14:25.814Z,10032
2022-08-05T08:16:53.415Z,9448
2022-08-05T08:17:05.927Z,9256
2022-08-05T08:18:23.381Z,8744
2022-08-05T08:19:08.614Z,8716
2022-08-05T08:21:20.233Z,8016
2022-08-05T08:21:55.204Z,7776
2022-08-05T08:22:53.573Z,7300
2022-08-05T08:24:16.791Z,7668
2022-08-05T08:25:26.354Z,7372
2022-08-05T08:26:12.656Z,7528
2022-08-05T08:27:19.063Z,7556
2022-08-05T08:28:35.860Z,7648
2022-08-05T08:30:36.521Z,7288
2022-08-05T08:30:57.828Z,7132
2022-08-05T08:31:56.695Z,6748
2022-08-05T08:33:02.839Z,6672
2022-08-05T08:33:59.497Z,7208
2022-08-05T08:34:59.615Z,7360
2022-08-05T08:36:57.827Z,6408
2022-08-05T08:37:29.878Z,6092
2022-08-05T08:38:18.964Z,6108
2022-08-05T08:39:24.918Z,6136
2022-08-05T08:40:14.431Z,6404
2022-08-05T08:41:16.272Z,6368
2022-08-05T08:43:21.242Z,6992
2022-08-05T08:45:37.680Z,6832
2022-08-05T08:46:39.386Z,6636
2022-08-05T08:50:14.787Z,6280
2022-08-05T08:52:17.711Z,6104
2022-08-05T08:52:31.695Z,6088
2022-08-05T08:53:30.984Z,6000
2022-08-05T08:54:36.359Z,6008
2022-08-05T08:56:10.027Z,5964
2022-08-05T08:56:32.474Z,5956
2022-08-05T08:58:00.438Z,5892
2022-08-05T08:58:52.769Z,5856
2022-08-05T08:59:36.153Z,5840
2022-08-05T09:00:31.417Z,5792
2022-08-05T09:01:29.772Z,5752
2022-08-05T09:02:33.641Z,5736
2022-08-05T09:03:45.111Z,5764
2022-08-05T09:05:17.175Z,5804
2022-08-05T09:06:28.324Z,5880
2022-08-05T09:07:59.663Z,5932
2022-08-05T09:08:17.173Z,5936
2022-08-05T09:09:18.477Z,5920
2022-08-05T09:10:15.831Z,5904
2022-08-05T09:11:54.830Z,5888
2022-08-05T09:12:35.911Z,5896
2022-08-05T09:13:18.251Z,5892
2022-08-05T09:15:10.776Z,5980
2022-08-05T09:15:25.856Z,5984
2022-08-05T09:16:28.944Z,5988
2022-08-05T09:17:55.485Z,5932
2022-08-05T09:18:23.889Z,5952
2022-08-05T09:19:55.240Z,5880
2022-08-05T09:20:44.015Z,5824
2022-08-05T09:22:38.503Z,5788
2022-08-05T09:23:27.145Z,5772
2022-08-05T09:24:14.649Z,5744
2022-08-05T09:26:09.263Z,5640
2022-08-05T09:26:34.730Z,5616
2022-08-05T09:28:15.404Z,5516
2022-08-05T09:28:37.690Z,5500
2022-08-05T09:29:52.469Z,5420
2022-08-05T09:30:32.653Z,5400
2022-08-05T09:32:54.331Z,5432
2022-08-05T09:33:07.144Z,5440
2022-08-05T09:34:06.416Z,5448
2022-08-05T09:35:07.135Z,5492
2022-08-05T09:36:18.905Z,5576
2022-08-05T09:37:17.367Z,5736
2022-08-05T09:38:36.593Z,5952
2022-08-05T09:39:58.025Z,6360
2022-08-05T09:40:29.951Z,6460
2022-08-05T09:41:28.200Z,6524
2022-08-05T09:42:37.041Z,6360
2022-08-05T09:43:40.346Z,6856
2022-08-05T09:44:31.722Z,8576
2022-08-05T09:46:17.710Z,11652
2022-08-05T09:46:39.887Z,12124
2022-08-05T09:48:01.214Z,13672
2022-08-05T09:48:38.195Z,14176
2022-08-05T09:50:10.676Z,14696
2022-08-05T09:50:50.027Z,14924
2022-08-05T09:51:48.730Z,15268
2022-08-05T09:52:47.037Z,15524
2022-08-05T09:54:03.936Z,14748
2022-08-05T09:54:38.498Z,14668
2022-08-05T09:56:15.547Z,13972
2022-08-05T09:56:38.032Z,14316
2022-08-05T09:57:45.364Z,13852
2022-08-05T09:58:43.782Z,13280
2022-08-05T09:59:45.142Z,12728
2022-08-05T10:00:39.842Z,12348
2022-08-05T10:01:41.805Z,12404
2022-08-05T10:02:41.074Z,12340
2022-08-05T10:04:10.162Z,12708
2022-08-05T10:04:43.093Z,13040
2022-08-05T10:05:40.816Z,12928
2022-08-05T10:06:38.896Z,12688
2022-08-05T10:08:56.231Z,12504
2022-08-05T10:09:30.683Z,12364
2022-08-05T10:10:36.911Z,11728
2022-08-05T10:11:23.172Z,11660
2022-08-05T10:12:51.298Z,10564
2022-08-05T10:13:24.622Z,10348
2022-08-05T10:14:25.015Z,8628
2022-08-05T10:15:25.960Z,7564
2022-08-05T10:16:28.287Z,7036
2022-08-05T10:17:58.994Z,7808
2022-08-05T10:18:25.380Z,8024
2022-08-05T10:20:09.535Z,9924
2022-08-05T10:20:27.510Z,10244
2022-08-05T10:21:40.089Z,11320
2022-08-05T10:22:53.104Z,12284
2022-08-05T10:24:13.046Z,12268
2022-08-05T10:24:34.892Z,12332
2022-08-05T10:25:27.157Z,12680
2022-08-05T10:26:46.722Z,11772
2022-08-05T10:28:32.818Z,10692
2022-08-05T10:28:50.198Z,10808
2022-08-05T10:33:05.274Z,13356
2022-08-05T10:33:23.271Z,13636
2022-08-05T10:34:33.304Z,13228
2022-08-05T10:35:40.483Z,12248
2022-08-05T10:36:31.125Z,11064
2022-08-05T10:37:40.526Z,9512
2022-08-05T10:38:32.988Z,8640
2022-08-05T10:40:20.311Z,8752
2022-08-05T10:40:43.573Z,8772
2022-08-05T10:41:56.780Z,8340
2022-08-05T10:42:45.998Z,8244
2022-08-05T10:43:43.975Z,8884
2022-08-05T10:44:40.092Z,9328
2022-08-05T10:45:52.821Z,9676
2022-08-05T10:46:39.478Z,9780
2022-08-05T10:47:41.692Z,9980
2022-08-05T10:49:16.403Z,8508
2022-08-05T10:50:39.431Z,7072
2022-08-05T10:50:58.033Z,6816
2022-08-05T10:52:12.945Z,6156
2022-08-05T10:53:03.007Z,5988
2022-08-05T10:53:58.319Z,6112
2022-08-05T10:55:04.667Z,5940
2022-08-05T10:56:29.930Z,6992
2022-08-05T10:57:00.188Z,7236
2022-08-05T10:58:03.262Z,7080
2022-08-05T10:58:58.032Z,7004
2022-08-05T11:00:23.080Z,7584
2022-08-05T11:01:09.470Z,7556
2022-08-05T11:02:34.528Z,6940
2022-08-05T11:02:58.650Z,6812
2022-08-05T11:03:57.697Z,7328
2022-08-05T11:05:00.212Z,7688
2022-08-05T11:06:14.949Z,8628
2022-08-05T11:06:58.546Z,9220
2022-08-05T11:08:40.545Z,10388
2022-08-05T11:08:58.116Z,10436
2022-08-05T11:10:14.931Z,10776
2022-08-05T11:11:19.250Z,10816
2022-08-05T11:12:00.301Z,10652
2022-08-05T11:13:03.349Z,10580
2022-08-05T11:14:06.987Z,11176
2022-08-05T11:15:59.725Z,10756
2022-08-05T11:16:12.175Z,10924
2022-08-05T11:18:14.380Z,9900
2022-08-05T11:18:32.390Z,9908
2022-08-05T11:20:28.822Z,9384
2022-08-05T11:20:45.762Z,9476
2022-08-05T11:22:02.104Z,9980
2022-08-05T11:22:44.505Z,10192
2022-08-05T11:24:35.398Z,10876
2022-08-05T11:26:13.842Z,10960
2022-08-05T11:26:43.263Z,11092
2022-08-05T11:28:06.102Z,11944
2022-08-05T11:28:42.965Z,12208
2022-08-05T11:29:41.787Z,12240
2022-08-05T11:30:43.824Z,11792
2022-08-05T11:32:08.091Z,10868
2022-08-05T11:32:42.722Z,10804
2022-08-05T11:33:53.303Z,10500
2022-08-05T11:34:47.679Z,10084
2022-08-05T11:36:11.005Z,9272
2022-08-05T11:36:52.735Z,8984
2022-08-05T11:38:57.619Z,9364
2022-08-05T11:39:09.399Z,9540
2022-08-05T11:40:11.753Z,10472
2022-08-05T11:42:07.248Z,12352
2022-08-05T11:42:32.775Z,12544
2022-08-05T11:44:21.734Z,10936
2022-08-05T11:45:05.634Z,10420
2022-08-05T11:47:18.604Z,10548
2022-08-05T11:48:03.157Z,10932
2022-08-05T11:48:58.259Z,11208
2022-08-05T11:50:00.471Z,11340
2022-08-05T11:50:56.920Z,11544
2022-08-05T11:52:00.026Z,11660
2022-08-05T11:53:03.373Z,11312
2022-08-05T11:54:02.649Z,10116
2022-08-05T11:55:10.551Z,8176
2022-08-05T11:56:01.381Z,6888
2022-08-05T11:56:58.153Z,6032
2022-08-05T11:58:22.872Z,5432
2022-08-05T11:59:00.679Z,5288
2022-08-05T11:59:57.430Z,5176
2022-08-05T12:01:02.418Z,5116
2022-08-05T12:02:01.064Z,5568
2022-08-05T12:03:00.974Z,6304
2022-08-05T12:04:03.349Z,6228
2022-08-05T12:05:22.323Z,6792
2022-08-05T12:05:58.761Z,7264
2022-08-05T12:06:59.661Z,8144
2022-08-05T12:08:22.676Z,7900
2022-08-05T12:08:58.419Z,8052
2022-08-05T12:10:09.391Z,8308
2022-08-05T12:11:00.002Z,8272
2022-08-05T12:11:57.691Z,8244
2022-08-05T12:13:28.320Z,8424
2022-08-05T12:14:06.602Z,8100
2022-08-05T12:15:05.599Z,7956
2022-08-05T12:16:02.649Z,7744
2022-08-05T12:16:59.237Z,7888
2022-08-05T12:18:18.562Z,8044
2022-08-05T12:20:33.103Z,8568
2022-08-05T12:20:48.049Z,8744
2022-08-05T12:21:48.050Z,9404
2022-08-05T12:22:54.310Z,9300
2022-08-05T12:23:53.815Z,9340
2022-08-05T12:24:55.550Z,9288
2022-08-05T12:25:45.067Z,8548
2022-08-05T12:26:48.355Z,8748
2022-08-05T12:28:04.503Z,9772
2022-08-05T12:28:48.476Z,11084
2022-08-05T12:29:56.886Z,11632
2022-08-05T12:30:52.864Z,11576
2022-08-05T12:32:01.925Z,11544
2022-08-05T12:32:52.780Z,11064
2022-08-05T12:33:48.659Z,10816
2022-08-05T12:34:44.720Z,10936
2022-08-05T12:35:55.033Z,10992
2022-08-05T12:36:46.898Z,11456
2022-08-05T12:37:45.691Z,10944
2022-08-05T12:38:44.918Z,10568
2022-08-05T12:39:51.501Z,9456
2022-08-05T12:40:48.677Z,9400
2022-08-05T12:41:51.305Z,10508
2022-08-05T12:42:43.571Z,10908
2022-08-05T12:43:50.431Z,10864
2022-08-05T12:44:50.063Z,10176
2022-08-05T12:45:57.073Z,8560
2022-08-05T12:46:48.062Z,8148
2022-08-05T12:48:35.079Z,9160
2022-08-05T12:48:47.766Z,9384
2022-08-05T12:50:15.717Z,10528
2022-08-05T12:50:49.598Z,10552
2022-08-05T12:52:38.081Z,9448
2022-08-05T12:53:00.019Z,9164
2022-08-05T12:54:03.855Z,7996
2022-08-05T12:54:56.842Z,6696
2022-08-05T12:55:58.197Z,5796
2022-08-05T12:56:57.975Z,5308
2022-08-05T12:59:20.904Z,5936
2022-08-05T13:02:15.312Z,8564
2022-08-05T13:03:12.153Z,9524
2022-08-05T13:04:12.368Z,10896
2022-08-05T13:05:05.805Z,11280
2022-08-05T13:06:05.873Z,11460
2022-08-05T13:07:26.995Z,10608
2022-08-05T13:08:13.092Z,9356
2022-08-05T13:09:07.258Z,7744
2022-08-05T13:10:07.766Z,6208
2022-08-05T13:11:08.967Z,5216
2022-08-05T13:12:18.365Z,4452
2022-08-05T13:14:07.595Z,3860
2022-08-05T13:14:44.210Z,3724
2022-08-05T13:15:53.207Z,3472
2022-08-05T13:16:27.744Z,3368
2022-08-05T13:17:44.867Z,3228
2022-08-05T13:18:28.688Z,3184
2022-08-05T13:19:25.189Z,3152
2022-08-05T13:20:34.269Z,3132
2022-08-05T13:21:37.845Z,3140
2022-08-05T13:22:38.305Z,3136
2022-08-05T13:23:28.279Z,3116
2022-08-05T13:25:08.164Z,3124
2022-08-05T13:26:09.280Z,3112
2022-08-05T13:27:00.345Z,3128
2022-08-05T13:27:59.944Z,3144
2022-08-05T13:29:01.686Z,3152
2022-08-05T13:30:43.501Z,3120
2022-08-05T13:31:10.881Z,3108
2022-08-05T13:32:12.630Z,3092
2022-08-05T13:33:03.785Z,3112
2022-08-05T13:34:31.136Z,3108
2022-08-05T13:34:58.685Z,3096
2022-08-05T13:36:09.054Z,3048
2022-08-05T13:36:59.558Z,3012
2022-08-05T13:38:09.237Z,3016
2022-08-05T13:38:59.141Z,3028
2022-08-05T13:40:54.956Z,3124
2022-08-05T13:41:08.204Z,3136
2022-08-05T13:42:08.051Z,3332
2022-08-05T13:43:14.319Z,3652
2022-08-05T13:44:06.807Z,3572
2022-08-05T13:45:08.446Z,3312
2022-08-05T13:46:06.267Z,2824
2022-08-05T13:49:00.799Z,2908
2022-08-05T13:49:17.351Z,2900
2022-08-05T13:50:21.512Z,3156
2022-08-05T13:51:15.791Z,3844
2022-08-05T13:52:15.690Z,3940
2022-08-05T13:53:23.314Z,4668
2022-08-05T13:54:26.965Z,4800
2022-08-05T13:56:02.149Z,4916
2022-08-05T13:56:25.757Z,4920
2022-08-05T13:57:27.062Z,4840
2022-08-05T13:58:41.699Z,4424
2022-08-05T13:59:33.128Z,4236
2022-08-05T14:00:33.755Z,4440
2022-08-05T14:01:57.059Z,4264
2022-08-05T14:02:35.666Z,3932
2022-08-05T14:03:25.773Z,4056
2022-08-05T14:04:28.763Z,3600
2022-08-05T14:06:28.683Z,3684
2022-08-05T14:06:41.103Z,3644
2022-08-05T14:08:35.081Z,4368
2022-08-05T14:08:49.281Z,4744
2022-08-05T14:09:52.970Z,5200
2022-08-05T14:10:48.583Z,6304
2022-08-05T14:12:37.435Z,6632
2022-08-05T14:13:02.020Z,6664
2022-08-05T14:14:06.668Z,6836
2022-08-05T14:14:58.138Z,7184
2022-08-05T14:16:21.846Z,6784
2022-08-05T14:17:03.176Z,7260
2022-08-05T14:18:05.981Z,7096
2022-08-05T14:18:58.859Z,6880
2022-08-05T14:20:09.897Z,6404
2022-08-05T14:22:12.508Z,5796
2022-08-05T14:22:24.579Z,5764
2022-08-05T14:23:41.701Z,5392
2022-08-05T14:24:26.557Z,5160
2022-08-05T14:25:33.093Z,4772
2022-08-05T14:27:20.455Z,4016
2022-08-05T14:27:36.722Z,3952
2022-08-05T14:28:37.645Z,3708
2022-08-05T14:29:38.582Z,3588
2022-08-05T14:30:38.184Z,3564
2022-08-05T14:32:33.199Z,3668
2022-08-05T14:32:47.373Z,3724
2022-08-05T14:34:13.985Z,3736
2022-08-05T14:34:48.490Z,3692
2022-08-05T14:36:00.549Z,3740
2022-08-05T14:36:53.428Z,3468
2022-08-05T14:38:03.443Z,3844
2022-08-05T14:38:48.855Z,4028
2022-08-05T14:40:05.671Z,4292
2022-08-05T14:40:52.809Z,4752
2022-08-05T14:42:27.181Z,5544
2022-08-05T14:42:47.678Z,5624
2022-08-05T14:44:25.106Z,5528
2022-08-05T14:44:48.746Z,5556
2022-08-05T14:45:48.160Z,4964
2022-08-05T14:46:49.302Z,4992
2022-08-05T14:48:35.443Z,5280
2022-08-05T14:48:55.277Z,5392
2022-08-05T14:50:22.375Z,5128
2022-08-05T14:50:51.076Z,4888
2022-08-05T14:51:49.936Z,4304
2022-08-05T14:53:04.556Z,4076
2022-08-05T14:54:36.253Z,3776
2022-08-05T14:55:05.813Z,3748
2022-08-05T14:56:03.258Z,3732
2022-08-05T14:57:09.665Z,3816
2022-08-05T14:58:13.646Z,3268
2022-08-05T14:59:05.401Z,3084
2022-08-05T15:00:03.974Z,2912
2022-08-05T15:01:06.345Z,2928
2022-08-05T15:02:13.751Z,3172
2022-08-05T15:03:06.708Z,3532
2022-08-05T15:04:03.417Z,3828
2022-08-05T15:05:15.619Z,3664
2022-08-05T15:06:27.785Z,3640
2022-08-05T15:07:05.282Z,3760
2022-08-05T15:09:05.408Z,3728
2022-08-05T15:09:54.848Z,3840
2022-08-05T15:10:17.204Z,3828
2022-08-05T15:11:17.157Z,3640
2022-08-05T15:12:21.309Z,3452
2022-08-05T15:13:17.350Z,3408
2022-08-05T15:14:43.152Z,3104
2022-08-05T15:15:58.735Z,3436
2022-08-05T15:16:21.715Z,3168
2022-08-05T15:17:58.000Z,3080
2022-08-05T15:18:19.504Z,3032
2022-08-05T15:19:32.851Z,3424
2022-08-05T15:20:29.679Z,3544
2022-08-05T15:21:18.551Z,3716
2022-08-05T15:22:18.177Z,3736
2022-08-05T15:23:16.928Z,3476
2022-08-05T15:24:19.032Z,3540
2022-08-05T15:25:55.828Z,4236
2022-08-05T15:26:17.664Z,4376
2022-08-05T15:27:22.392Z,4904
2022-08-05T15:28:20.950Z,5348
2022-08-05T15:29:16.023Z,5636
2022-08-05T15:30:19.044Z,5944
2022-08-05T15:31:17.158Z,6124
2022-08-05T15:32:18.817Z,6156
2022-08-05T15:34:19.209Z,5808
2022-08-05T15:34:44.144Z,5768
2022-08-05T15:35:54.439Z,5764
2022-08-05T15:36:43.889Z,5572
2022-08-05T15:38:48.814Z,6056
2022-08-05T15:42:02.132Z,6144
2022-08-05T15:43:29.334Z,6140
2022-08-05T15:44:24.428Z,6516
2022-08-05T15:45:40.891Z,7060
2022-08-05T15:46:26.393Z,7224
2022-08-05T15:47:28.558Z,7268
2022-08-05T15:48:22.300Z,7128
2022-08-05T15:50:01.937Z,7104
2022-08-05T15:50:32.271Z,7096
2022-08-05T15:52:29.096Z,6720
2022-08-05T15:53:15.024Z,6236
2022-08-05T15:54:20.014Z,5800
2022-08-05T15:55:17.753Z,5660
2022-08-05T15:56:20.245Z,5568
2022-08-05T15:57:14.607Z,5568
2022-08-05T15:58:18.583Z,5160
2022-08-05T15:59:24.073Z,4568
2022-08-05T16:00:10.960Z,4008
2022-08-05T16:01:39.530Z,3468
2022-08-05T16:02:31.133Z,3760
2022-08-05T16:03:12.218Z,3916
2022-08-05T16:04:20.417Z,4216
2022-08-05T16:05:15.464Z,4396
2022-08-05T16:06:13.607Z,4360
2022-08-05T16:07:15.891Z,4300
2022-08-05T16:08:18.103Z,4244
2022-08-05T16:09:14.270Z,4160
2022-08-05T16:10:16.883Z,4268
2022-08-05T16:11:12.480Z,4392
2022-08-05T16:12:11.508Z,4396
2022-08-05T16:13:13.335Z,4336
2022-08-05T16:14:17.023Z,4248
2022-08-05T16:15:20.707Z,4124
2022-08-05T16:16:13.260Z,4080
2022-08-05T16:17:13.630Z,4164
2022-08-05T16:18:19.966Z,3944
2022-08-05T16:19:25.783Z,3640
2022-08-05T16:20:24.682Z,3564
2022-08-05T16:21:58.306Z,3676
2022-08-05T16:22:33.826Z,3724
2022-08-05T16:23:20.150Z,3816
2022-08-05T16:24:55.685Z,3936
2022-08-05T16:25:20.335Z,3980
2022-08-05T16:26:26.341Z,4148
2022-08-05T16:28:05.763Z,4340
2022-08-05T16:28:26.274Z,4424
2022-08-05T16:29:24.914Z,4612
2022-08-05T16:30:34.007Z,4952
2022-08-05T16:31:19.728Z,5196
2022-08-05T16:32:28.898Z,5492
2022-08-05T16:33:22.417Z,5164
2022-08-05T16:34:22.537Z,4772
2022-08-05T16:35:32.619Z,4504
2022-08-05T16:36:26.580Z,4368
2022-08-05T16:38:30.504Z,4328
2022-08-05T16:38:43.064Z,4344
2022-08-05T16:40:32.155Z,4552
2022-08-05T16:40:47.937Z,4532
2022-08-05T16:42:33.577Z,3820
2022-08-05T16:42:46.247Z,3776
2022-08-05T16:43:45.156Z,3720
2022-08-05T16:44:59.091Z,4084
2022-08-05T16:46:28.707Z,4460
2022-08-05T16:47:01.349Z,4348
2022-08-05T16:48:06.886Z,3792
2022-08-05T16:48:45.599Z,3528
2022-08-05T16:49:45.687Z,3224
2022-08-05T16:50:45.033Z,2896
2022-08-05T16:52:01.224Z,2740
2022-08-05T16:52:56.444Z,2680
2022-08-05T16:54:32.997Z,2476
2022-08-05T16:54:47.826Z,2456
2022-08-05T16:55:53.827Z,2404
2022-08-05T16:56:54.463Z,2324
2022-08-05T16:58:10.939Z,2316
2022-08-05T16:58:45.702Z,2324
2022-08-05T17:00:25.873Z,2360
2022-08-05T17:00:52.087Z,2396
2022-08-05T17:02:04.490Z,2468
2022-08-05T17:02:45.819Z,2500
2022-08-05T17:03:45.624Z,2540
2022-08-05T17:04:48.801Z,2600
2022-08-05T17:05:47.857Z,2664
2022-08-05T17:07:00.312Z,2748
2022-08-05T17:07:59.641Z,2792
2022-08-05T17:09:02.119Z,2840
2022-08-05T17:10:05.227Z,2880
2022-08-05T17:10:44.959Z,2904
2022-08-05T17:12:05.042Z,2904
2022-08-05T17:12:59.820Z,2920
2022-08-05T17:13:50.423Z,2980
2022-08-05T17:14:47.602Z,3032
2022-08-05T17:16:30.487Z,2892
2022-08-05T17:16:48.119Z,2868
2022-08-05T17:17:57.914Z,2644
2022-08-05T17:18:47.639Z,2536
2022-08-05T17:19:47.344Z,2576
2022-08-05T17:20:48.724Z,3096
2022-08-05T17:21:56.951Z,3408
2022-08-05T17:22:47.323Z,3120
2022-08-05T17:24:56.819Z,2412
2022-08-05T17:25:44.683Z,2324
2022-08-05T17:26:09.280Z,2348
2022-08-05T17:27:08.513Z,2612
2022-08-05T17:28:10.158Z,3012
2022-08-05T17:29:15.736Z,3156
2022-08-05T17:30:30.701Z,3200
2022-08-05T17:32:02.011Z,2936
2022-08-05T17:32:22.204Z,3072
2022-08-05T17:33:16.071Z,3136
2022-08-05T17:34:32.529Z,2416
2022-08-05T17:35:20.763Z,2368
2022-08-05T17:36:42.786Z,2276
2022-08-05T17:37:50.993Z,1952
2022-08-05T17:38:13.064Z,1936
2022-08-05T17:39:38.609Z,1880
2022-08-05T17:40:18.372Z,1892
2022-08-05T17:42:34.796Z,1980
2022-08-05T17:43:02.612Z,1900
2022-08-05T17:44:02.664Z,1776
2022-08-05T17:44:59.293Z,1612
2022-08-05T17:46:02.517Z,1452
2022-08-05T17:47:02.059Z,1380
2022-08-05T17:48:03.016Z,1268
2022-08-05T17:49:00.406Z,1172
2022-08-05T17:50:15.750Z,1200
2022-08-05T17:51:00.786Z,1188
2022-08-05T17:52:02.998Z,1060
2022-08-05T17:53:01.935Z,1156